Flight Track Log - Related Links

Times and Time Zones

All times are in EDT time to prevent confusion due to time zone crossing. See the EJA929 flight status page for this flight to view local times or setup timezone preferences in your user account.


Time Position Orientation Groundspeed Altitude Reporting Facility
EDT Latitude Longitude Course Direction KTS MPH feet Rate Location/Type
Mon 08:46:45 AM 40.4756 -107.2022 246° West 23 26 6,600  Level Denver Center
Mon 08:47:45 AM 40.4867 -107.2408 291° West 198 228 7,500 2,529 Climbing Denver Center
Mon 08:48:46 AM 40.4669 -107.3239 253° West 213 245 11,700 3,492 Climbing Denver Center
Mon 08:49:00 AM 40.2982 -108.1074 252° West  Level FlightAware Approximate
Mon 08:49:47 AM 40.4397 -107.4086 247° West 261 300 14,600  Level Denver Center
Mon 08:50:00 AM 40.2619 -108.2526 252° West  Level FlightAware Approximate
Mon 08:50:48 AM 40.4153 -107.5125 253° West 308 354 16,700  Level Denver Center
Mon 08:51:00 AM 40.2335 -108.3994 252° West  Level FlightAware Approximate
Mon 08:51:48 AM 40.3883 -107.6408 255° West 328 377 18,800  Level Denver Center
Mon 08:52:00 AM 40.1986 -108.5448 261° West  Level FlightAware Approximate
Mon 08:52:49 AM 40.3656 -107.7578 256° West 340 391 20,700  Level Denver Center
Mon 08:53:00 AM 40.1744 -108.6934 246° West  Level FlightAware Approximate
Mon 08:53:50 AM 40.3400 -107.8819 255° West 362 417 22,700  Level Denver Center
Mon 08:54:51 AM 40.3083 -108.0411 255° West 399 459 24,900 2,016 Climbing Denver Center
Mon 08:55:52 AM 40.2797 -108.1856 255° West 423 487 26,800 1,934 Climbing Denver Center
Mon 08:56:52 AM 40.2475 -108.3356 254° West 441 507 28,800 2,056 Climbing Denver Center
Mon 08:57:40 AM 40.2222 -108.4628 255° West 451 519 30,500 2,333 Climbing Salt Lake Center
Mon 08:58:40 AM 40.1847 -108.6422 255° West 458 527 33,000 1,736 Climbing Salt Lake Center
Mon 08:59:41 AM 40.1542 -108.7942 255° West 455 524 34,000 441 Climbing Salt Lake Center
Mon 09:00:56 AM 40.1086 -109.0058 254° West 472 543 34,000  Level Denver Center
Mon 09:01:42 AM 40.0800 -109.1397 254° West 479 551 34,000  Level Salt Lake Center
Mon 09:02:43 AM 40.0458 -109.2981 254° West 477 549 34,000  Level Salt Lake Center
Mon 09:03:43 AM 40.0114 -109.4572 254° West 477 549 34,000 793 Level Salt Lake Center
Mon 09:04:44 AM 39.9711 -109.6400 254° West 473 544 35,600 1,537 Climbing Salt Lake Center
Mon 09:05:44 AM 39.9383 -109.7919 254° West 459 528 37,100 1,438 Climbing Salt Lake Center
Mon 09:06:45 AM 39.9056 -109.9403 254° West 449 517 38,500 1,328 Climbing Salt Lake Center
Mon 09:07:46 AM 39.8669 -110.1114 254° West 443 510 39,800 744 Climbing Salt Lake Center
Mon 09:08:46 AM 39.8342 -110.2586 254° West 442 509 40,000 99 Climbing Salt Lake Center
Mon 09:09:47 AM 39.8003 -110.4106 254° West 454 522 40,000 443 Level Salt Lake Center
Mon 09:10:48 AM 39.7594 -110.5864 253° West 455 524 40,900 893 Climbing Salt Lake Center
Mon 09:11:48 AM 39.7272 -110.7350 254° West 449 517 41,800 893 Climbing Salt Lake Center
Mon 09:12:49 AM 39.6925 -110.8800 253° West 441 507 42,700 595 Climbing Salt Lake Center
Mon 09:13:49 AM 39.6539 -111.0497 254° West 440 506 43,000 149 Climbing Salt Lake Center
Mon 09:14:50 AM 39.6189 -111.1992 253° West 448 516 43,000  Level Salt Lake Center
Mon 09:15:51 AM 39.5797 -111.3589 252° West 457 526 43,000  Level Salt Lake Center
Mon 09:16:51 AM 39.5433 -111.5150 253° West 453 521 43,000  Level Salt Lake Center
Mon 09:17:52 AM 39.5064 -111.6672 253° West 445 512 43,000  Level Salt Lake Center
Mon 09:18:53 AM 39.4706 -111.8192 253° West 442 509 43,000  Level Salt Lake Center
Mon 09:19:54 AM 39.4333 -111.9728 253° West 446 513 43,000  Level Salt Lake Center
Mon 09:20:54 AM 39.3956 -112.1267 252° West 448 516 43,000  Level Salt Lake Center
Mon 09:21:55 AM 39.3583 -112.2803 253° West 450 518 43,000  Level Salt Lake Center
Mon 09:22:56 AM 39.3219 -112.4344 253° West 450 518 43,000  Level Salt Lake Center
Mon 09:23:57 AM 39.2847 -112.5861 252° West 446 513 43,000  Level Salt Lake Center
Mon 09:24:57 AM 39.2486 -112.7436 254° West 446 513 43,000  Level Salt Lake Center
Mon 09:25:58 AM 39.2144 -112.9036 255° West 458 527 43,000  Level Salt Lake Center
Mon 09:26:59 AM 39.1792 -113.0581 254° West 453 521 43,000  Level Salt Lake Center
Mon 09:28:00 AM 39.1550 -113.2136 259° West 447 514 43,000  Level Salt Lake Center
Mon 09:29:01 AM 39.1308 -113.4031 261° West 449 517 43,000  Level Salt Lake Center
Mon 09:30:01 AM 39.1083 -113.5622 260° West 452 520 43,000  Level Salt Lake Center
Mon 09:31:02 AM 39.0886 -113.7211 261° West 452 520 43,000  Level Salt Lake Center
Mon 09:32:03 AM 39.0664 -113.8797 260° West 452 520 43,000  Level Salt Lake Center
Mon 09:33:04 AM 39.0442 -114.0406 260° West 457 526 43,000  Level Salt Lake Center
Mon 09:34:05 AM 39.0228 -114.1983 260° West 453 521 43,000  Level Salt Lake Center
Mon 09:35:06 AM 39.0011 -114.3567 260° West 452 520 43,000  Level Salt Lake Center
Mon 09:36:07 AM 38.9792 -114.5153 260° West 452 520 43,000  Level Salt Lake Center
Mon 09:37:07 AM 38.9558 -114.6728 259° West 451 519 43,000  Level Salt Lake Center
Mon 09:38:08 AM 38.9339 -114.8311 260° West 452 520 43,000  Level Salt Lake Center
Mon 09:39:09 AM 38.9108 -114.9881 259° West 451 519 43,000  Level Salt Lake Center
Mon 09:40:10 AM 38.8872 -115.1458 259° West 451 519 43,000  Level Salt Lake Center
Mon 09:41:11 AM 38.8597 -115.3344 259° West 450 518 43,000  Level Salt Lake Center
Mon 09:42:12 AM 38.8375 -115.4761 259° West 452 520 43,000  Level Salt Lake Center
Mon 09:43:13 AM 38.8147 -115.6331 259° West 449 517 43,000  Level Salt Lake Center
Mon 09:44:14 AM 38.7903 -115.7900 259° West 450 518 43,000  Level Salt Lake Center
Mon 09:45:15 AM 38.7658 -115.9483 259° West 452 520 43,000  Level Salt Lake Center
Mon 09:46:16 AM 38.7414 -116.1064 259° West 453 521 43,000  Level Salt Lake Center
Mon 09:47:17 AM 38.7114 -116.2967 259° West 454 522 43,000  Level Salt Lake Center
Mon 09:48:18 AM 38.6864 -116.4556 259° West 456 525 43,000  Level Salt Lake Center
Mon 09:49:19 AM 38.6606 -116.6150 258° West 460 529 43,000  Level Salt Lake Center
Mon 09:50:20 AM 38.6353 -116.7769 259° West 464 534 43,000  Level Salt Lake Center
Mon 09:51:21 AM 38.6100 -116.9367 259° West 463 533 43,000  Level Salt Lake Center
Mon 09:52:22 AM 38.6006 -117.1000 266° West 463 533 43,000  Level Salt Lake Center
Mon 09:53:19 AM 38.5919 -117.2614 266° West 460 529 43,000  Level Oakland Center
Mon 09:54:19 AM 38.5836 -117.4239 266° West 462 532 43,000  Level Oakland Center
Mon 09:55:20 AM 38.5747 -117.5844 266° West 458 527 43,000  Level Oakland Center
Mon 09:56:21 AM 38.5656 -117.7450 266° West 456 525 43,000  Level Oakland Center
Mon 09:57:22 AM 38.5561 -117.9053 266° West 455 524 43,000  Level Oakland Center
Mon 09:58:23 AM 38.5464 -118.0647 266° West 452 520 43,000  Level Oakland Center
Mon 09:59:24 AM 38.5353 -118.2408 265° West 450 518 43,000  Level Oakland Center
Mon 10:00:25 AM 38.5256 -118.4008 266° West 451 519 43,000  Level Oakland Center
Mon 10:01:25 AM 38.5147 -118.5603 265° West 451 519 43,000  Level Oakland Center
Mon 10:02:26 AM 38.5042 -118.7219 265° West 454 522 43,000  Level Oakland Center
Mon 10:03:27 AM 38.4933 -118.8822 265° West 453 521 43,000  Level Oakland Center
Mon 10:04:28 AM 38.4825 -119.0442 265° West 455 524 43,000  Level Oakland Center
Mon 10:05:29 AM 38.4717 -119.2044 265° West 453 521 43,000  Level Oakland Center
Mon 10:06:30 AM 38.4592 -119.3650 264° West 454 522 43,000 -344 Level Oakland Center
Mon 10:07:31 AM 38.4478 -119.5275 265° West 458 527 42,300 -1,672 Descending Oakland Center
Mon 10:08:32 AM 38.4367 -119.6875 265° West 454 522 39,600 -2,656 Descending Oakland Center
Mon 10:09:33 AM 38.4208 -119.8669 264° West 459 528 36,900 -2,508 Descending Oakland Center
Mon 10:10:34 AM 38.4094 -120.0292 265° West 459 528 34,500 -2,459 Descending Oakland Center
Mon 10:11:35 AM 38.3956 -120.1975 264° West 474 545 31,900 -2,557 Descending Oakland Center
Mon 10:12:36 AM 38.3811 -120.3697 264° West 486 559 29,300 -2,557 Descending Oakland Center
Mon 10:13:37 AM 38.3678 -120.5433 264° West 491 565 26,700 -2,508 Descending Oakland Center
Mon 10:14:38 AM 38.3542 -120.7106 264° West 481 554 24,200 -2,331 Descending Oakland Center
Mon 10:15:38 AM 38.3406 -120.8719 264° West 466 536 22,000 -1,091 Descending Oakland Center
Mon 10:16:39 AM 38.3275 -121.0294 264° West 449 517 22,000 -309 Level Oakland Center
Mon 10:17:15 AM 38.3167 -121.1333 262° West 447 514 21,500 -1,319 Descending Northern Cal TRACON
Mon 10:18:10 AM 38.3000 -121.2833 262° West 435 501 20,000 -1,388 Descending Northern Cal TRACON
Mon 10:19:16 AM 38.3000 -121.4333 270° West 415 478 18,700 -2,540 Descending Northern Cal TRACON
Mon 10:21:45 AM 38.1567 -121.7078 236° Southwest 376 433 10,900 -2,600 Descending Oakland Center
Mon 10:22:46 AM 38.1686 -121.8200 278° West 324 373 9,600 -1,869 Descending Oakland Center
Mon 10:23:47 AM 38.1786 -121.9128 278° West 279 321 7,100 -2,262 Descending Oakland Center
Mon 10:24:48 AM 38.1867 -122.0025 277° West 262 302 5,000 -1,279 Descending Oakland Center
Mon 10:25:49 AM 38.1950 -122.0906 277° West 257 296 4,500 -885 Descending Oakland Center
Mon 10:26:50 AM 38.2028 -122.1733 277° West 243 280 3,200 -885 Descending Oakland Center
Mon 10:27:51 AM 38.2325 -122.2114 315° West 180 207 2,700 -1,033 Descending Oakland Center
Mon 10:28:52 AM 38.2511 -122.2497 302° West 150 173 1,100 -1,574 Descending Oakland Center

Login

Don't have an account? Register now (free) for customized features, flight alerts, and more!